createdAt,value
2023-01-30T00:02:42.703Z,1.02
2023-01-30T00:07:44.893Z,0.95
2023-01-30T00:12:47.998Z,0.97
2023-01-30T00:17:49.780Z,0.97
2023-01-30T00:23:00.529Z,1.01
2023-01-30T00:28:05.036Z,1.01
2023-01-30T00:33:07.265Z,1.00
2023-01-30T00:38:09.438Z,0.96
2023-01-30T00:43:15.064Z,0.95
2023-01-30T00:48:16.991Z,0.93
2023-01-30T00:53:19.064Z,0.93
2023-01-30T00:58:26.244Z,0.93
2023-01-30T01:03:28.468Z,0.87
2023-01-30T01:08:30.355Z,0.83
2023-01-30T01:13:34.040Z,0.83
2023-01-30T01:18:35.938Z,0.85
2023-01-30T01:23:38.276Z,0.89
2023-01-30T01:28:41.570Z,0.91
2023-01-30T01:33:44.130Z,0.98
2023-01-30T01:38:46.544Z,1.02
2023-01-30T01:44:02.796Z,1.01
2023-01-30T01:49:13.193Z,1.10
2023-01-30T01:54:18.775Z,1.15
2023-01-30T01:59:28.683Z,1.17
2023-01-30T02:04:32.957Z,1.19
2023-01-30T02:09:35.411Z,1.19
2023-01-30T02:14:40.070Z,1.22
2023-01-30T02:19:49.422Z,1.17
2023-01-30T02:25:16.419Z,1.14
2023-01-30T02:30:55.223Z,1.13
2023-01-30T02:36:05.911Z,1.15
2023-01-30T02:41:19.809Z,1.17
2023-01-30T02:46:32.166Z,1.11
2023-01-30T02:51:37.078Z,1.08
2023-01-30T02:56:47.308Z,1.05
2023-01-30T03:02:26.627Z,1.12
2023-01-30T03:07:43.251Z,1.08
2023-01-30T03:12:52.996Z,1.14
2023-01-30T03:17:57.612Z,1.24
2023-01-30T03:22:59.666Z,1.32
2023-01-30T03:28:05.110Z,1.35
2023-01-30T03:33:08.541Z,1.36
2023-01-30T03:38:11.183Z,1.35
2023-01-30T03:43:13.233Z,1.35
2023-01-30T03:48:16.666Z,1.43
2023-01-30T03:53:18.606Z,1.44
2023-01-30T03:58:20.742Z,1.46
2023-01-30T04:03:23.928Z,1.49
2023-01-30T04:08:26.660Z,1.55
2023-01-30T04:13:28.678Z,1.66
2023-01-30T04:18:32.096Z,1.70
2023-01-30T04:23:34.086Z,1.83
2023-01-30T04:28:37.247Z,1.88
2023-01-30T04:33:41.201Z,1.89
2023-01-30T04:38:43.527Z,1.92
2023-01-30T04:43:45.288Z,1.91
2023-01-30T04:48:48.372Z,1.91
2023-01-30T04:53:50.436Z,1.88
2023-01-30T04:58:52.531Z,1.80
2023-01-30T05:03:56.557Z,1.74
2023-01-30T05:08:59.310Z,1.65
2023-01-30T05:14:01.478Z,1.62
2023-01-30T05:19:05.022Z,1.52
2023-01-30T05:24:07.464Z,1.49
2023-01-30T05:29:10.946Z,1.47
2023-01-30T05:34:14.415Z,1.50
2023-01-30T05:39:16.416Z,1.52
2023-01-30T05:44:18.744Z,1.53
2023-01-30T05:49:22.291Z,1.53
2023-01-30T05:54:24.425Z,1.59
2023-01-30T05:59:26.513Z,1.61
2023-01-30T06:04:29.932Z,1.63
2023-01-30T06:09:31.854Z,1.69
2023-01-30T06:14:34.141Z,1.73
2023-01-30T06:19:37.514Z,1.77
2023-01-30T06:24:39.820Z,1.87
2023-01-30T06:29:42.110Z,1.94
2023-01-30T06:34:45.416Z,2.03
2023-01-30T06:39:47.642Z,1.95
2023-01-30T06:44:49.720Z,2.07
2023-01-30T06:49:53.104Z,2.21
2023-01-30T06:54:54.853Z,2.24
2023-01-30T06:59:56.636Z,2.23
2023-01-30T07:04:59.733Z,2.25
2023-01-30T07:10:08.412Z,2.26
2023-01-30T07:15:10.846Z,2.26
2023-01-30T07:20:14.275Z,2.26
2023-01-30T07:25:16.576Z,2.26
2023-01-30T07:30:19.074Z,2.26
2023-01-30T07:35:23.648Z,2.34
2023-01-30T07:40:26.235Z,2.38
2023-01-30T07:45:31.345Z,2.44
2023-01-30T07:50:34.904Z,2.58
2023-01-30T07:55:36.965Z,2.73
2023-01-30T08:00:39.103Z,2.86
2023-01-30T08:05:42.633Z,2.98
2023-01-30T08:10:44.481Z,3.06
2023-01-30T08:15:46.622Z,3.21
2023-01-30T08:20:49.657Z,3.49
2023-01-30T08:25:54.687Z,3.76
2023-01-30T08:30:57.836Z,3.97
2023-01-30T08:36:01.276Z,3.98
2023-01-30T08:41:04.949Z,4.07
2023-01-30T08:46:06.718Z,4.23
2023-01-30T08:51:10.222Z,4.39
2023-01-30T08:56:12.331Z,4.58
2023-01-30T09:01:14.076Z,4.67
2023-01-30T09:06:17.895Z,4.75
2023-01-30T09:11:20.227Z,5.09
2023-01-30T09:16:22.332Z,5.01
2023-01-30T09:21:26.027Z,5.11
2023-01-30T09:26:28.376Z,5.39
2023-01-30T09:31:30.931Z,5.42
2023-01-30T09:36:34.407Z,5.34
2023-01-30T09:41:54.330Z,5.41
2023-01-30T09:47:09.151Z,5.53
2023-01-30T09:52:27.516Z,5.53
2023-01-30T09:57:30.063Z,5.56
2023-01-30T10:02:47.734Z,5.75
2023-01-30T10:08:03.900Z,5.45
2023-01-30T10:13:18.521Z,5.54
2023-01-30T10:18:44.983Z,6.17
2023-01-30T10:24:03.358Z,6.01
2023-01-30T10:29:11.964Z,7.47
2023-01-30T10:34:22.130Z,9.11
2023-01-30T10:39:35.348Z,10.61
2023-01-30T10:44:41.043Z,11.76
2023-01-30T10:49:46.520Z,9.02
2023-01-30T10:55:00.584Z,7.01
2023-01-30T11:00:11.117Z,6.49
2023-01-30T11:05:16.320Z,6.35
2023-01-30T11:10:23.316Z,6.05
2023-01-30T11:15:39.615Z,5.97
2023-01-30T11:20:44.376Z,6.15
2023-01-30T11:26:09.187Z,8.18
2023-01-30T11:31:28.271Z,6.48
2023-01-30T11:36:38.923Z,6.26
2023-01-30T11:41:44.099Z,6.35
2023-01-30T11:46:46.897Z,6.82
2023-01-30T11:51:54.090Z,7.11
2023-01-30T11:57:01.783Z,6.94
2023-01-30T12:02:11.150Z,6.66
2023-01-30T12:07:20.755Z,6.77
2023-01-30T12:12:32.847Z,6.65
2023-01-30T12:17:42.707Z,6.65
2023-01-30T12:22:51.766Z,6.99
2023-01-30T12:28:01.901Z,7.20
2023-01-30T12:33:06.604Z,7.25
2023-01-30T12:38:18.780Z,7.61
2023-01-30T12:43:34.884Z,7.48
2023-01-30T12:49:10.111Z,7.35
2023-01-30T12:54:24.877Z,7.25
2023-01-30T12:59:37.034Z,7.44
2023-01-30T13:04:56.696Z,7.17
2023-01-30T13:10:14.736Z,6.77
2023-01-30T13:15:26.243Z,6.59
2023-01-30T13:20:44.491Z,6.56
2023-01-30T13:25:55.993Z,6.60
2023-01-30T13:31:01.277Z,6.67
2023-01-30T13:36:11.952Z,6.67
2023-01-30T13:41:17.173Z,6.60
2023-01-30T13:46:26.519Z,6.51
2023-01-30T13:51:43.142Z,6.47
2023-01-30T13:56:50.424Z,6.34
2023-01-30T14:02:19.505Z,6.17
2023-01-30T14:07:29.998Z,5.99
2023-01-30T14:12:36.291Z,6.02
2023-01-30T14:17:39.885Z,5.93
2023-01-30T14:22:51.424Z,5.38
2023-01-30T14:27:55.267Z,5.01
2023-01-30T14:32:59.682Z,4.97
2023-01-30T14:38:13.246Z,4.29
2023-01-30T14:43:37.189Z,4.13
2023-01-30T14:48:44.760Z,4.05
2023-01-30T14:53:53.683Z,4.19
2023-01-30T14:59:01.903Z,4.28
2023-01-30T15:04:05.554Z,4.36
2023-01-30T15:09:08.040Z,4.52
2023-01-30T15:14:19.375Z,4.65
2023-01-30T15:19:41.218Z,4.66
2023-01-30T15:25:22.258Z,4.65
2023-01-30T15:30:38.079Z,4.73
2023-01-30T15:35:42.868Z,4.73
2023-01-30T15:40:44.816Z,4.62
2023-01-30T15:46:03.237Z,4.52
2023-01-30T15:51:12.557Z,4.51
2023-01-30T15:56:19.557Z,4.59
2023-01-30T16:01:23.393Z,4.49
2023-01-30T16:06:30.845Z,4.65
2023-01-30T16:11:39.193Z,4.61
2023-01-30T16:16:46.653Z,4.71
2023-01-30T16:21:50.809Z,4.19
2023-01-30T16:26:55.872Z,4.16
2023-01-30T16:31:58.350Z,4.17
2023-01-30T16:37:06.374Z,4.24
2023-01-30T16:42:27.080Z,4.21
2023-01-30T16:47:29.667Z,4.24
2023-01-30T16:52:37.142Z,4.25
2023-01-30T16:57:42.875Z,4.23
2023-01-30T17:02:51.057Z,4.21
2023-01-30T17:07:56.116Z,4.11
2023-01-30T17:12:59.476Z,4.19
2023-01-30T17:18:02.013Z,4.13
2023-01-30T17:23:09.336Z,4.14
2023-01-30T17:28:18.550Z,4.26
2023-01-30T17:33:21.372Z,4.26
2023-01-30T17:38:24.380Z,4.28
2023-01-30T17:43:26.817Z,4.22
2023-01-30T17:48:29.084Z,4.34
2023-01-30T17:53:32.501Z,4.40
2023-01-30T17:58:34.275Z,4.53
2023-01-30T18:03:36.023Z,4.65
2023-01-30T18:08:39.446Z,4.63
2023-01-30T18:13:42.206Z,4.82
2023-01-30T18:18:43.938Z,4.82
2023-01-30T18:23:47.488Z,4.91
2023-01-30T18:28:49.610Z,5.01
2023-01-30T18:33:52.709Z,5.09
2023-01-30T18:38:55.874Z,5.10
2023-01-30T18:43:58.727Z,5.28
2023-01-30T18:49:00.890Z,5.31
2023-01-30T18:54:04.457Z,5.43
2023-01-30T18:59:07.635Z,5.38
2023-01-30T19:04:11.215Z,5.48
2023-01-30T19:09:15.657Z,5.48
2023-01-30T19:14:17.695Z,5.37
2023-01-30T19:19:19.446Z,5.38
2023-01-30T19:24:22.481Z,5.50
2023-01-30T19:29:24.139Z,5.56
2023-01-30T19:34:25.895Z,5.59
2023-01-30T19:39:29.028Z,5.49
2023-01-30T19:44:30.823Z,5.31
2023-01-30T19:49:35.719Z,5.40
2023-01-30T19:54:39.155Z,5.27
2023-01-30T19:59:41.347Z,5.30
2023-01-30T20:04:43.077Z,5.31
2023-01-30T20:09:46.423Z,5.27
2023-01-30T20:14:48.771Z,5.24
2023-01-30T20:19:51.324Z,5.29
2023-01-30T20:24:54.439Z,5.28
2023-01-30T20:29:56.625Z,5.13
2023-01-30T20:34:58.380Z,5.03
2023-01-30T20:40:02.296Z,5.00
2023-01-30T20:45:05.765Z,5.00
2023-01-30T20:50:09.167Z,4.81
2023-01-30T20:55:12.871Z,4.83
2023-01-30T21:00:15.133Z,4.93
2023-01-30T21:05:17.798Z,4.87
2023-01-30T21:10:21.398Z,4.70
2023-01-30T21:15:23.196Z,4.60
2023-01-30T21:20:24.915Z,4.46
2023-01-30T21:25:28.074Z,4.33
2023-01-30T21:30:29.843Z,4.17
2023-01-30T21:35:32.383Z,4.05
2023-01-30T21:40:35.513Z,3.98
2023-01-30T21:45:37.795Z,3.89
2023-01-30T21:50:40.321Z,3.78
2023-01-30T21:55:43.447Z,3.70
2023-01-30T22:00:45.732Z,3.75
2023-01-30T22:05:47.457Z,3.62
2023-01-30T22:10:50.976Z,3.69
2023-01-30T22:15:52.687Z,3.66
2023-01-30T22:20:54.430Z,3.64
2023-01-30T22:25:57.760Z,3.61
2023-01-30T22:31:05.338Z,3.61
2023-01-30T22:36:08.074Z,3.63
2023-01-30T22:41:14.430Z,3.56
2023-01-30T22:46:18.454Z,3.60
2023-01-30T22:51:22.681Z,3.72
2023-01-30T22:56:28.547Z,3.73
2023-01-30T23:01:32.460Z,3.70
2023-01-30T23:06:34.905Z,3.78
2023-01-30T23:11:40.931Z,3.72
2023-01-30T23:16:45.062Z,3.77
2023-01-30T23:21:47.503Z,3.69
2023-01-30T23:26:52.055Z,3.77
2023-01-30T23:31:54.170Z,3.82
2023-01-30T23:36:56.451Z,3.73
2023-01-30T23:42:00.039Z,3.80
2023-01-30T23:47:02.393Z,3.70
2023-01-30T23:52:04.847Z,3.65
2023-01-30T23:57:08.351Z,3.44
